Time;durP1;ratioP1;P1;durP2;ratioP2;P2;SDS_P1;SDS_P2;PMS_P1;PMS_P2;Temp;Humidity;BMP_temperature;BMP_pressure;BME280_temperature;BME280_humidity;BME280_pressure;Samples;Min_cycle;Max_cycle;Signal;HPM_P1;HPM_P2
2023/11/05 00:02:14;;;;;;;3.10;1.25;;;;;;;10.40;79.99;98318.38;6141166;23;20005;-91
2023/11/05 00:04:41;;;;;;;2.65;1.17;;;;;;;10.40;79.76;98321.06;6141477;23;20008;-91
2023/11/05 00:07:06;;;;;;;3.05;1.20;;;;;;;10.26;80.13;98305.59;6141547;23;20083;-91
2023/11/05 00:09:32;;;;;;;1.95;1.50;;;;;;;10.45;81.14;98345.97;6165548;23;20085;-90
2023/11/05 00:11:58;;;;;;;5.38;1.42;;;;;;;10.26;81.61;98321.75;6141338;23;20084;-91
2023/11/05 00:14:23;;;;;;;2.97;1.33;;;;;;;10.30;81.19;98328.19;6141169;23;20008;-92
2023/11/05 00:16:49;;;;;;;4.43;1.30;;;;;;;10.16;80.81;98305.75;6140911;23;20000;-91
2023/11/05 00:19:14;;;;;;;5.00;1.38;;;;;;;10.22;80.91;98319.94;6140695;23;20056;-91
2023/11/05 00:21:40;;;;;;;2.78;1.33;;;;;;;10.18;81.05;98321.63;6141536;23;20004;-91
2023/11/05 00:24:06;;;;;;;2.55;1.35;;;;;;;10.28;81.33;98334.91;6165516;23;20004;-91
2023/11/05 00:26:33;;;;;;;2.08;1.33;;;;;;;10.25;80.95;98341.69;6141040;23;20426;-91
2023/11/05 00:28:58;;;;;;;4.72;1.60;;;;;;;10.16;80.56;98332.66;6191118;23;19997;-90
2023/11/05 00:31:24;;;;;;;3.95;1.42;;;;;;;10.34;80.65;98366.06;6165340;23;20004;-91
2023/11/05 00:33:50;;;;;;;1.63;1.27;;;;;;;10.19;80.21;98350.91;6166129;23;20083;-91
2023/11/05 00:36:15;;;;;;;2.13;1.20;;;;;;;10.07;80.23;98343.28;6165636;23;20036;-90
2023/11/05 00:38:41;;;;;;;6.38;1.25;;;;;;;10.22;80.17;98362.97;6140803;23;20342;-91
2023/11/05 00:41:07;;;;;;;3.85;1.30;;;;;;;10.11;80.51;98362.34;6166368;23;20003;-91
2023/11/05 00:43:32;;;;;;;2.25;1.35;;;;;;;10.10;81.29;98372.25;6140823;23;20324;-94
2023/11/05 00:45:58;;;;;;;3.22;1.67;;;;;;;10.02;81.96;98380.19;6141649;23;20057;-93
2023/11/05 00:48:23;;;;;;;3.22;1.58;;;;;;;9.91;82.73;98380.31;6166298;23;20005;-91
2023/11/05 00:50:49;;;;;;;2.15;1.33;;;;;;;9.80;82.58;98368.09;6165315;23;20005;-92
2023/11/05 00:53:19;;;;;;;3.80;1.70;;;;;;;9.73;82.30;98359.56;6141878;23;20000;-94
2023/11/05 00:55:45;;;;;;;3.13;1.45;;;;;;;9.73;82.38;98364.16;6143742;23;20000;-95
2023/11/05 00:58:10;;;;;;;3.75;1.10;;;;;;;9.91;82.30;98391.06;6143053;23;20336;-94
2023/11/05 01:00:36;;;;;;;1.60;1.13;;;;;;;9.77;82.09;98359.81;6143659;23;19996;-95
2023/11/05 01:03:09;;;;;;;4.65;1.10;;;;;;;9.71;81.80;98353.69;6142555;23;20008;-94
2023/11/05 01:05:38;;;;;;;1.52;1.10;;;;;;;9.73;81.91;98348.81;6166594;23;20363;-95
2023/11/05 01:08:03;;;;;;;2.65;1.27;;;;;;;9.68;82.73;98365.81;6144528;23;19997;-96
2023/11/05 01:10:32;;;;;;;2.95;1.40;;;;;;;9.52;83.69;98356.31;6142312;23;20004;-95
2023/11/05 01:12:57;;;;;;;5.05;1.77;;;;;;;9.55;83.25;98360.34;6143029;23;20005;-96
2023/11/05 01:15:34;;;;;;;;;;;;;;;;;;;;;
2023/11/05 01:18:07;;;;;;;4.40;2.20;;;;;;;9.58;83.95;98382.06;6194051;23;20053;-95
2023/11/05 01:20:33;;;;;;;3.72;2.17;;;;;;;9.42;83.98;98372.56;6142170;23;20000;-95
2023/11/05 01:22:58;;;;;;;2.80;1.60;;;;;;;9.35;83.83;98374.81;6142314;23;20343;-95
2023/11/05 01:25:27;;;;;;;11.25;2.75;;;;;;;9.19;84.48;98368.78;6166643;23;20404;-95
2023/11/05 01:27:52;;;;;;;4.40;1.58;;;;;;;9.12;84.38;98368.31;6142815;23;20001;-95
2023/11/05 01:30:19;;;;;;;6.95;1.50;;;;;;;9.16;84.16;98370.16;6141748;23;20000;-94
2023/11/05 01:32:44;;;;;;;6.40;1.88;;;;;;;9.12;83.79;98361.06;6142088;23;20356;-95
2023/11/05 01:35:13;;;;;;;6.50;1.92;;;;;;;9.24;84.30;98366.06;6141954;23;20055;-95
2023/11/05 01:37:39;;;;;;;2.67;1.65;;;;;;;9.32;83.99;98365.44;6166472;23;20032;-94
2023/11/05 01:40:13;;;;;;;3.45;1.38;;;;;;;9.43;83.55;98372.28;6217163;23;20064;-95
2023/11/05 01:42:39;;;;;;;1.23;1.10;;;;;;;9.32;83.43;98349.31;6193067;23;20043;-95
2023/11/05 01:45:08;;;;;;;2.75;1.20;;;;;;;9.48;83.73;98372.25;6166016;23;20009;-94
2023/11/05 01:47:34;;;;;;;3.22;1.58;;;;;;;9.35;83.30;98348.72;6167098;23;19993;-94
2023/11/05 01:50:03;;;;;;;5.60;1.70;;;;;;;9.37;83.82;98370.75;6166038;23;20008;-95
2023/11/05 01:52:28;;;;;;;3.60;1.90;;;;;;;9.24;84.46;98363.38;6168467;23;20479;-94
2023/11/05 01:55:06;;;;;;;3.45;1.67;;;;;;;9.17;83.81;98362.88;6166596;23;19997;-96
2023/11/05 01:57:37;;;;;;;1.90;1.25;;;;;;;9.03;83.67;98365.47;6194716;23;19997;-93
2023/11/05 02:00:17;;;;;;;5.82;1.75;;;;;;;8.97;83.58;98371.97;6192522;23;20337;-94
2023/11/05 02:02:47;;;;;;;4.15;1.77;;;;;;;8.95;83.20;98376.81;6170738;23;20000;-95
2023/11/05 02:05:13;;;;;;;6.15;1.60;;;;;;;8.92;83.19;98380.03;6191419;23;20008;-95
2023/11/05 02:07:44;;;;;;;2.40;1.70;;;;;;;8.96;83.11;98387.25;6191665;23;20004;-95
2023/11/05 02:10:12;;;;;;;4.85;1.42;;;;;;;8.94;83.45;98388.63;6191437;23;20005;-95
2023/11/05 02:12:43;;;;;;;1.92;1.40;;;;;;;8.99;83.02;98399.31;6166514;23;20347;-96
2023/11/05 02:15:16;;;;;;;2.90;1.70;;;;;;;8.86;83.16;98381.97;6169239;23;19992;-94
2023/11/05 02:17:51;;;;;;;2.58;1.63;;;;;;;8.90;84.03;98394.56;6167295;23;20008;-94
2023/11/05 02:20:17;;;;;;;3.80;1.70;;;;;;;8.84;83.65;98374.22;6169749;23;20000;-94
2023/11/05 02:22:45;;;;;;;2.78;1.40;;;;;;;9.00;83.80;98401.69;6166771;23;20008;-93
2023/11/05 02:25:18;;;;;;;11.18;2.05;;;;;;;9.08;84.22;98408.34;6167489;23;20011;-95
2023/11/05 02:27:53;;;;;;;1.95;1.10;;;;;;;9.16;83.96;98407.75;6168683;23;20004;-93
2023/11/05 02:30:22;;;;;;;3.08;1.30;;;;;;;8.94;84.19;98375.19;6168999;23;20004;-95
2023/11/05 02:32:47;;;;;;;1.60;1.13;;;;;;;8.83;84.31;98366.44;6169454;23;20115;-94
2023/11/05 02:35:13;;;;;;;2.10;1.35;;;;;;;8.73;84.00;98369.19;6167172;23;20080;-95
2023/11/05 02:37:42;;;;;;;6.20;1.70;;;;;;;8.72;83.88;98381.81;6191940;23;20024;-94
2023/11/05 02:40:09;;;;;;;2.30;1.40;;;;;;;8.49;83.41;98373.41;6167388;23;20079;-95
2023/11/05 02:42:37;;;;;;;6.35;1.50;;;;;;;8.54;83.44;98393.22;6166199;23;20013;-94
2023/11/05 02:45:19;;;;;;;2.70;1.60;;;;;;;8.47;83.32;98374.75;6167007;23;20000;-95
2023/11/05 02:47:47;;;;;;;3.25;1.40;;;;;;;8.46;82.85;98373.16;6170941;23;20091;-95
2023/11/05 02:50:15;;;;;;;3.92;1.45;;;;;;;8.34;83.89;98378.81;6166627;23;20001;-95
2023/11/05 02:52:41;;;;;;;5.72;1.67;;;;;;;8.48;83.65;98381.72;6165114;23;20008;-95
2023/11/05 02:55:07;;;;;;;6.65;2.03;;;;;;;8.38;84.22;98368.34;6165601;23;20519;-96
2023/11/05 02:57:38;;;;;;;5.28;1.70;;;;;;;8.33;83.67;98360.34;6165573;23;20001;-95
2023/11/05 03:00:06;;;;;;;3.65;1.60;;;;;;;8.29;83.89;98357.41;6166884;23;20001;-95
2023/11/05 03:02:33;;;;;;;5.50;1.40;;;;;;;8.29;83.86;98370.81;6166896;23;20000;-95
2023/11/05 03:04:58;;;;;;;9.50;1.65;;;;;;;8.45;83.67;98388.44;6166706;23;20067;-94
2023/11/05 03:07:31;;;;;;;8.20;1.60;;;;;;;8.17;84.09;98349.69;6166329;23;20000;-95
2023/11/05 03:09:57;;;;;;;2.33;1.42;;;;;;;8.25;84.04;98356.38;6167621;23;20023;-95
2023/11/05 03:12:25;;;;;;;11.98;1.65;;;;;;;8.20;84.50;98340.31;6165766;23;19997;-95
2023/11/05 03:14:52;;;;;;;8.57;2.15;;;;;;;8.17;85.33;98340.84;6165627;23;20000;-93
2023/11/05 03:17:18;;;;;;;3.03;1.85;;;;;;;8.15;84.57;98335.75;6167325;23;19997;-95
2023/11/05 03:19:46;;;;;;;3.03;1.90;;;;;;;8.32;84.21;98366.78;6165947;23;20001;-94
2023/11/05 03:22:20;;;;;;;4.28;1.70;;;;;;;8.26;84.02;98364.13;6166160;23;19997;-96
2023/11/05 03:24:48;;;;;;;4.47;1.73;;;;;;;8.21;84.77;98364.16;6168279;23;20078;-95
2023/11/05 03:27:17;;;;;;;2.63;1.50;;;;;;;8.36;84.88;98392.75;6168554;23;20325;-95
2023/11/05 03:29:42;;;;;;;2.42;1.40;;;;;;;8.43;83.57;98387.94;6168470;23;20432;-95
2023/11/05 03:32:08;;;;;;;2.42;1.13;;;;;;;8.69;82.17;98406.53;6167828;23;20000;-95
2023/11/05 03:34:36;;;;;;;1.42;0.90;;;;;;;8.50;80.32;98387.59;6191897;23;20008;-94
2023/11/05 03:37:06;;;;;;;2.08;1.20;;;;;;;8.62;80.44;98414.09;6168248;23;20031;-96
2023/11/05 03:39:37;;;;;;;2.28;1.10;;;;;;;8.50;79.29;98398.34;6169181;23;20402;-94
2023/11/05 03:42:03;;;;;;;5.38;1.00;;;;;;;8.64;79.25;98439.56;6169638;23;20008;-94
2023/11/05 03:44:38;;;;;;;4.75;1.40;;;;;;;8.56;79.39;98436.69;6193908;23;20005;-94
2023/11/05 03:47:04;;;;;;;2.45;1.10;;;;;;;8.63;79.24;98442.53;6169622;23;20316;-95
2023/11/05 03:49:29;;;;;;;2.95;1.40;;;;;;;8.43;80.30;98413.97;6192864;23;20000;-95
2023/11/05 03:51:58;;;;;;;4.65;1.38;;;;;;;8.23;81.14;98404.09;6167999;23;20423;-96
2023/11/05 03:54:27;;;;;;;2.38;1.10;;;;;;;8.24;81.71;98425.28;6170007;23;20000;-95
2023/11/05 03:56:56;;;;;;;2.88;1.10;;;;;;;8.27;81.37;98450.75;6169313;23;20031;-95
2023/11/05 03:59:26;;;;;;;3.40;1.27;;;;;;;8.00;81.64;98414.41;6194137;23;20000;-95
2023/11/05 04:01:52;;;;;;;1.42;1.02;;;;;;;7.97;81.56;98409.59;6169386;23;20414;-96
2023/11/05 04:04:18;;;;;;;1.92;1.30;;;;;;;7.85;82.42;98403.75;6168607;23;20005;-95
2023/11/05 04:06:43;;;;;;;2.80;1.33;;;;;;;7.97;82.09;98416.81;6169481;23;20024;-94
2023/11/05 04:09:09;;;;;;;3.75;1.20;;;;;;;7.75;82.19;98379.69;6169060;23;20032;-95
2023/11/05 04:11:47;;;;;;;3.25;1.60;;;;;;;7.71;82.22;98381.31;6167417;23;20470;-95
2023/11/05 04:14:17;;;;;;;2.22;1.73;;;;;;;7.93;82.17;98416.59;6170775;23;20024;-95
2023/11/05 04:16:45;;;;;;;2.25;1.83;;;;;;;8.01;81.94;98413.34;6169422;23;19996;-96
2023/11/05 04:19:15;;;;;;;2.83;1.98;;;;;;;7.85;82.21;98379.63;6167457;23;20000;-95
2023/11/05 04:21:41;;;;;;;2.78;2.08;;;;;;;7.93;82.14;98383.59;6168436;23;20436;-96
2023/11/05 04:24:07;;;;;;;3.67;2.10;;;;;;;8.18;81.26;98396.91;6168182;23;20007;-96
2023/11/05 04:26:32;;;;;;;4.72;2.15;;;;;;;8.18;81.78;98390.75;6167155;23;20014;-96
2023/11/05 04:28:58;;;;;;;3.83;2.20;;;;;;;8.09;81.80;98374.41;6167368;23;20024;-96
2023/11/05 04:31:26;;;;;;;4.40;2.40;;;;;;;8.08;82.38;98373.63;6168293;23;20005;-96
2023/11/05 04:33:52;;;;;;;5.50;2.03;;;;;;;8.20;82.89;98392.06;6169339;23;20024;-95
2023/11/05 04:36:17;;;;;;;4.68;1.92;;;;;;;8.02;83.10;98392.69;6167665;23;20022;-95
2023/11/05 04:38:46;;;;;;;6.57;2.10;;;;;;;7.98;83.28;98387.06;6167451;23;20080;-95
2023/11/05 04:41:19;;;;;;;5.10;1.83;;;;;;;7.96;83.03;98394.59;6192073;23;19996;-95
2023/11/05 04:43:46;;;;;;;4.43;2.05;;;;;;;8.01;82.48;98404.47;6146319;23;20435;-96
2023/11/05 04:46:15;;;;;;;11.73;7.05;;;;;;;8.05;82.57;98395.63;6168456;23;20066;-96
2023/11/05 04:48:42;;;;;;;5.13;2.72;;;;;;;8.12;82.51;98408.72;6167513;23;20427;-95
2023/11/05 04:51:09;;;;;;;5.65;2.15;;;;;;;8.11;82.50;98382.97;6167830;23;20079;-95
2023/11/05 04:53:41;;;;;;;3.85;2.15;;;;;;;8.12;82.59;98383.81;6168027;23;20453;-94
2023/11/05 04:56:12;;;;;;;4.05;2.17;;;;;;;8.16;82.32;98368.75;6168476;23;20000;-95
2023/11/05 04:58:38;;;;;;;4.47;2.22;;;;;;;8.15;82.89;98376.00;6193041;23;19997;-96
2023/11/05 05:01:04;;;;;;;1.80;1.30;;;;;;;8.18;82.05;98378.13;6166737;23;20023;-96
2023/11/05 05:03:36;;;;;;;2.60;1.30;;;;;;;8.14;81.25;98357.53;6167066;23;20001;-95
2023/11/05 05:06:01;;;;;;;2.88;1.58;;;;;;;8.13;81.33;98363.94;6168713;23;20040;-96
2023/11/05 05:08:29;;;;;;;2.53;0.80;;;;;;;8.12;80.96;98371.19;6166853;23;20067;-95
2023/11/05 05:11:00;;;;;;;2.15;0.90;;;;;;;8.22;79.08;98379.19;6167893;23;20004;-96
2023/11/05 05:13:28;;;;;;;0.80;0.60;;;;;;;8.36;78.51;98398.13;6167563;23;20031;-94
2023/11/05 05:15:54;;;;;;;2.95;0.90;;;;;;;8.30;78.75;98396.56;6167924;23;19996;-95
2023/11/05 05:18:23;;;;;;;4.88;1.40;;;;;;;8.37;78.03;98390.91;6166532;23;20388;-94
2023/11/05 05:20:49;;;;;;;1.02;0.77;;;;;;;8.38;77.70;98387.13;6194350;23;20032;-94
2023/11/05 05:23:15;;;;;;;1.02;0.80;;;;;;;8.49;76.78;98404.78;6167850;23;20000;-96
2023/11/05 05:25:44;;;;;;;0.65;0.63;;;;;;;8.46;76.29;98399.97;6166110;23;20407;-95
2023/11/05 05:28:10;;;;;;;1.00;0.70;;;;;;;8.57;75.84;98400.69;6167766;23;20000;-95
2023/11/05 05:30:39;;;;;;;1.52;0.70;;;;;;;8.60;75.91;98400.94;6166472;23;19997;-95
2023/11/05 05:33:13;;;;;;;1.00;0.70;;;;;;;8.67;75.99;98411.38;6167937;23;20490;-94
2023/11/05 05:35:39;;;;;;;3.58;2.10;;;;;;;8.59;77.96;98415.47;6171227;23;20415;-95
2023/11/05 05:38:07;;;;;;;3.22;1.95;;;;;;;8.46;79.44;98408.81;6166226;23;20024;-96
2023/11/05 05:40:35;;;;;;;6.20;1.90;;;;;;;8.44;80.03;98415.53;6168218;23;20003;-95
2023/11/05 05:43:04;;;;;;;2.80;1.95;;;;;;;8.52;80.57;98438.31;6191544;23;20004;-94
2023/11/05 05:45:37;;;;;;;2.78;1.80;;;;;;;8.36;80.44;98416.09;6192356;23;20428;-95
2023/11/05 05:48:03;;;;;;;4.95;1.80;;;;;;;8.44;80.70;98428.97;6216281;23;20003;-95
2023/11/05 05:50:28;;;;;;;7.80;2.05;;;;;;;8.36;81.03;98424.16;6167031;23;20083;-94
2023/11/05 05:52:54;;;;;;;7.13;1.85;;;;;;;8.32;81.39;98418.53;6191164;23;20024;-94
2023/11/05 05:55:19;;;;;;;4.47;1.75;;;;;;;8.52;81.19;98435.63;6191374;23;20016;-95
2023/11/05 05:57:45;;;;;;;8.35;2.28;;;;;;;8.45;81.28;98417.16;6166232;23;20150;-95
2023/11/05 06:00:21;;;;;;;5.93;1.75;;;;;;;8.50;80.92;98414.44;6168563;23;20482;-96
2023/11/05 06:02:47;;;;;;;3.83;1.70;;;;;;;8.54;80.58;98409.31;6194136;23;20008;-95
2023/11/05 06:05:24;;;;;;;6.95;1.80;;;;;;;8.42;81.55;98394.34;6192309;23;20298;-95
2023/11/05 06:07:50;;;;;;;2.50;1.50;;;;;;;8.36;82.89;98395.44;6171809;23;20390;-95
2023/11/05 06:10:16;;;;;;;4.75;2.05;;;;;;;8.60;83.05;98432.34;6215354;23;20417;-95
2023/11/05 06:12:42;;;;;;;10.00;1.98;;;;;;;8.42;83.98;98398.94;6165702;23;20019;-95
2023/11/05 06:15:14;;;;;;;6.40;1.63;;;;;;;8.49;83.78;98410.97;6165931;23;19997;-95
2023/11/05 06:17:40;;;;;;;4.43;1.77;;;;;;;8.48;83.50;98411.22;6168159;23;20009;-95
2023/11/05 06:20:08;;;;;;;4.20;2.17;;;;;;;8.66;83.24;98439.28;6142480;23;20048;-95
2023/11/05 06:22:37;;;;;;;3.83;1.52;;;;;;;8.53;82.16;98399.66;6166426;23;20004;-93
2023/11/05 06:25:03;;;;;;;4.22;1.75;;;;;;;8.64;81.96;98399.31;6167086;23;20047;-94
2023/11/05 06:27:29;;;;;;;3.22;2.17;;;;;;;8.74;83.63;98403.81;6167756;23;20037;-94
2023/11/05 06:29:56;;;;;;;8.10;2.00;;;;;;;8.73;84.56;98388.78;6166461;23;20012;-94
2023/11/05 06:32:26;;;;;;;4.20;2.60;;;;;;;8.89;84.99;98398.31;6193251;23;20071;-94
2023/11/05 06:34:53;;;;;;;4.57;2.85;;;;;;;8.85;84.70;98381.16;6191471;23;20019;-94
2023/11/05 06:37:19;;;;;;;256.40;104.35;;;;;;;8.96;84.32;98383.75;6167897;23;20000;-95
2023/11/05 06:39:50;;;;;;;15.48;8.18;;;;;;;8.99;83.92;98381.31;6141612;23;20017;-94
2023/11/05 06:42:15;;;;;;;15.52;4.95;;;;;;;9.17;84.38;98392.44;6143421;23;20039;-95
2023/11/05 06:44:51;;;;;;;;;;;;;;;;;;;;;
2023/11/05 06:47:19;;;;;;;5.07;1.85;;;;;;;9.38;80.21;98368.84;6171294;23;20044;-95
2023/11/05 06:49:47;;;;;;;4.65;1.70;;;;;;;9.56;76.49;98380.75;6142240;23;20333;-96
2023/11/05 06:52:13;;;;;;;1.45;1.00;;;;;;;9.76;73.20;98385.09;6142669;23;20004;-94
2023/11/05 06:54:41;;;;;;;2.60;1.10;;;;;;;10.01;71.36;98402.81;6142516;23;20009;-95
2023/11/05 06:57:10;;;;;;;3.08;1.00;;;;;;;9.98;70.92;98360.34;6165831;23;20004;-95
2023/11/05 06:59:45;;;;;;;1.15;0.70;;;;;;;10.16;68.99;98364.13;6144435;23;20008;-96
2023/11/05 07:06:10;;;;;;;;;;;;;;;;;;;;;
2023/11/05 07:08:37;;;;;;;4.20;0.95;;;;;;;10.47;67.79;98348.38;6154141;23;20053;-94
2023/11/05 07:11:03;;;;;;;4.72;1.30;;;;;;;10.55;68.16;98353.09;6156737;23;20084;-96
2023/11/05 07:13:32;;;;;;;1.85;0.73;;;;;;;10.57;67.77;98333.97;6107433;23;20352;-94
2023/11/05 07:15:58;;;;;;;1.48;0.75;;;;;;;10.74;68.36;98346.88;6113474;23;20025;-96
2023/11/05 07:18:23;;;;;;;0.90;0.80;;;;;;;10.79;68.39;98330.63;6142282;23;20067;-94
2023/11/05 07:20:49;;;;;;;1.10;0.70;;;;;;;10.86;68.22;98326.47;6142358;23;20079;-95
2023/11/05 07:23:15;;;;;;;1.25;0.70;;;;;;;10.91;67.90;98321.00;6142625;23;20004;-95
2023/11/05 07:25:44;;;;;;;2.42;0.73;;;;;;;11.09;66.55;98321.22;6142558;23;20012;-95
2023/11/05 07:28:13;;;;;;;5.63;2.03;;;;;;;11.21;67.87;98331.53;6144049;23;20140;-93
2023/11/05 07:30:44;;;;;;;4.70;1.20;;;;;;;11.26;68.31;98321.44;6143486;23;20008;-94
2023/11/05 07:33:12;;;;;;;4.75;1.00;;;;;;;11.42;67.54;98315.75;6168874;23;20432;-94
2023/11/05 07:35:37;;;;;;;2.47;1.30;;;;;;;11.63;68.00;98319.63;6167534;23;19995;-94
2023/11/05 07:38:03;;;;;;;3.97;1.65;;;;;;;11.74;67.60;98312.13;6141822;23;20024;-93
2023/11/05 07:40:29;;;;;;;5.50;1.73;;;;;;;11.87;67.77;98314.00;6167291;23;20051;-94
2023/11/05 07:42:55;;;;;;;2.47;1.40;;;;;;;11.98;68.95;98305.72;6168348;23;20339;-96
2023/11/05 07:45:30;;;;;;;4.18;1.65;;;;;;;11.98;71.88;98300.34;6169726;23;20009;-94
2023/11/05 07:47:56;;;;;;;4.50;1.63;;;;;;;12.04;72.43;98301.81;6194801;23;20438;-94
2023/11/05 07:50:25;;;;;;;6.55;1.60;;;;;;;12.20;71.27;98288.75;6142514;23;19992;-93
2023/11/05 07:52:54;;;;;;;4.03;1.80;;;;;;;12.26;70.61;98265.94;6169179;23;20000;-94
2023/11/05 07:55:22;;;;;;;3.28;1.10;;;;;;;12.42;67.81;98277.19;6193563;23;19996;-95
2023/11/05 07:58:07;;;;;;;5.85;1.90;;;;;;;12.55;68.93;98273.59;6169661;23;20027;-96
2023/11/05 08:00:56;;;;;;;;;;;;;;;;;;;;;
2023/11/05 08:03:31;;;;;;;6.72;1.60;;;;;;;12.93;71.80;98295.59;6199077;23;20052;-94
2023/11/05 08:06:06;;;;;;;5.72;1.27;;;;;;;12.91;68.90;98270.00;6194643;23;20004;-95
2023/11/05 08:08:32;;;;;;;4.75;1.50;;;;;;;13.07;64.90;98265.78;6169885;23;20343;-94
2023/11/05 08:11:00;;;;;;;4.50;1.10;;;;;;;13.13;62.46;98251.00;6170282;23;20001;-95
2023/11/05 08:13:28;;;;;;;2.45;1.30;;;;;;;13.34;61.05;98262.09;6166900;23;20035;-93
2023/11/05 08:16:11;;;;;;;1.80;1.10;;;;;;;13.57;61.69;98275.47;6167466;23;19999;-92
2023/11/05 08:18:38;;;;;;;1.35;0.90;;;;;;;13.61;61.32;98254.00;6169124;23;20000;-93
2023/11/05 08:21:20;;;;;;;3.80;1.10;;;;;;;13.68;60.34;98247.03;6193661;23;20164;-94
2023/11/05 08:24:02;;;;;;;2.70;1.30;;;;;;;13.79;60.55;98238.59;6194634;23;20075;-96
2023/11/05 08:26:28;;;;;;;1.05;0.70;;;;;;;14.04;59.01;98245.13;6171226;23;20151;-95
2023/11/05 08:28:58;;;;;;;1.10;0.70;;;;;;;14.08;57.00;98224.44;6167353;23;20009;-96
2023/11/05 08:31:24;;;;;;;2.25;0.60;;;;;;;14.34;56.43;98238.75;6169227;23;20009;-96
2023/11/05 08:34:00;;;;;;;2.35;0.63;;;;;;;14.42;55.46;98226.31;6143364;23;20102;-95
2023/11/05 08:36:31;;;;;;;1.70;0.68;;;;;;;14.60;55.61;98226.28;6169887;23;20001;-95
2023/11/05 08:39:11;;;;;;;0.73;0.43;;;;;;;14.77;54.70;98234.34;6166911;23;20020;-95
2023/11/05 08:41:40;;;;;;;0.68;0.60;;;;;;;14.97;53.97;98235.56;6172343;23;19997;-94
2023/11/05 08:44:06;;;;;;;1.33;0.73;;;;;;;15.12;52.94;98223.38;6194798;23;20080;-96
2023/11/05 08:46:34;;;;;;;2.97;0.65;;;;;;;15.36;53.37;98228.97;6168343;23;20404;-95
2023/11/05 08:48:59;;;;;;;2.85;0.90;;;;;;;15.43;53.09;98211.41;6167473;23;19996;-94
2023/11/05 08:51:38;;;;;;;;;;;;;;;;;;;;;
2023/11/05 08:54:07;;;;;;;1.88;0.60;;;;;;;15.55;50.62;98179.72;6196074;23;20088;-95
2023/11/05 08:56:48;;;;;;;0.82;0.68;;;;;;;15.67;48.77;98180.91;6168372;23;20000;-96
2023/11/05 08:59:16;;;;;;;0.50;0.50;;;;;;;15.82;49.15;98171.41;6170098;23;20062;-96
2023/11/05 09:01:58;;;;;;;;;;;;;;;;;;;;;
2023/11/05 09:04:38;;;;;;;;;;;;;;;;;;;;;
2023/11/05 09:07:10;;;;;;;2.10;0.80;;;;;;;16.14;49.07;98157.03;6197058;23;20460;-94
2023/11/05 09:09:39;;;;;;;2.92;1.05;;;;;;;16.17;48.63;98142.00;6192666;23;20355;-96
2023/11/05 09:12:14;;;;;;;2.03;1.25;;;;;;;16.28;48.07;98120.63;6168279;23;20475;-95
2023/11/05 09:14:40;;;;;;;5.68;2.13;;;;;;;16.42;48.42;98134.69;6166777;23;20001;-95
2023/11/05 09:17:18;;;;;;;5.95;1.02;;;;;;;16.49;47.67;98123.25;6168331;23;20000;-95
2023/11/05 09:19:58;;;;;;;;;;;;;;;;;;;;;
2023/11/05 09:22:24;;;;;;;1.40;0.45;;;;;;;16.63;46.24;98106.63;6194141;23;20064;-94
2023/11/05 09:25:02;;;;;;;;;;;;;;;;;;;;;
2023/11/05 09:28:01;;;;;;;;;;;;;;;;;;;;;
2023/11/05 09:30:47;;;;;;;2.75;0.75;;;;;;;16.81;44.40;98091.72;6216508;23;20380;-96
2023/11/05 09:33:31;;;;;;;3.63;0.70;;;;;;;16.75;45.12;98068.56;6193081;23;20006;-96
2023/11/05 09:36:12;;;;;;;1.52;0.77;;;;;;;16.81;44.53;98066.44;6170757;23;20355;-96
2023/11/05 09:40:24;;;;;;;;;;;;;;;;;;;;;
2023/11/05 09:42:16;;;;;;;1.25;0.50;;;;;;;16.73;43.76;98030.06;6135568;23;20096;-95
2023/11/05 09:44:45;;;;;;;0.38;0.32;;;;;;;17.01;43.66;98043.75;6136360;23;20001;-95
2023/11/05 09:47:30;;;;;;;;;;;;;;;;;;;;;
2023/11/05 09:50:14;;;;;;;2.88;0.60;;;;;;;16.92;44.00;98024.84;6165613;23;20024;-96
2023/11/05 09:52:43;;;;;;;2.70;0.68;;;;;;;17.01;44.73;98024.69;6131634;23;20005;-95
2023/11/05 09:55:26;;;;;;;3.72;0.70;;;;;;;16.93;45.03;98015.56;6131552;23;19998;-94
2023/11/05 09:58:21;;;;;;;;;;;;;;;;;;;;;
2023/11/05 10:01:19;;;;;;;;;;;;;;;;;;;;;
2023/11/05 10:03:48;;;;;;;1.27;0.80;;;;;;;17.08;45.20;98011.31;6076069;23;20054;-94
2023/11/05 10:06:26;;;;;;;2.00;0.90;;;;;;;17.00;44.87;97993.22;6050278;23;20011;-96
2023/11/05 10:09:01;;;;;;;5.13;1.00;;;;;;;17.02;45.05;98003.75;6108810;23;20005;-96
2023/11/05 10:12:47;;;;;;;;;;;;;;;;;;;;;
2023/11/05 10:16:10;;;;;;;;;;;;;;;;;;;;;
2023/11/05 10:22:37;;;;;;;;;;;;;;;;;;;;;
2023/11/05 10:25:12;;;;;;;1.88;0.90;;;;;;;17.36;43.81;97989.56;6047675;23;20526;-94
2023/11/05 10:28:30;;;;;;;;;;;;;;;;;;;;;
2023/11/05 10:33:59;;;;;;;4.00;0.68;;;;;;;17.38;42.94;97970.16;6073841;23;20011;-95
2023/11/05 10:36:48;;;;;;;2.05;1.02;;;;;;;17.50;43.17;97975.53;6136241;23;20094;-94
2023/11/05 10:39:21;;;;;;;1.90;0.80;;;;;;;17.54;43.33;97970.22;6190005;23;20029;-93
2023/11/05 10:42:04;;;;;;;0.90;0.70;;;;;;;17.66;42.66;97975.56;6187330;23;20448;-95
2023/11/05 10:44:50;;;;;;;3.88;0.70;;;;;;;17.51;42.98;97960.78;6155920;23;20019;-92
2023/11/05 10:47:18;;;;;;;3.60;0.88;;;;;;;17.51;43.39;97952.63;6195205;23;20012;-93
2023/11/05 10:49:58;;;;;;;;;;;;;;;;;;;;;
2023/11/05 10:53:00;;;;;;;2.03;0.90;;;;;;;17.59;43.44;97942.72;6196138;23;20063;-96
2023/11/05 10:55:54;;;;;;;1.85;0.68;;;;;;;17.40;43.67;97923.56;6197890;23;19997;-93
2023/11/05 10:58:44;;;;;;;0.98;0.50;;;;;;;17.42;44.09;97911.19;6132090;23;20000;-96
2023/11/05 11:01:14;;;;;;;14.48;10.05;;;;;;;17.36;43.96;97904.44;6197071;23;20004;-93
2023/11/05 11:03:49;;;;;;;4.95;3.22;;;;;;;17.49;44.34;97907.84;6168928;23;20003;-94
2023/11/05 11:06:22;;;;;;;2.30;0.95;;;;;;;17.49;44.30;97891.53;6171359;23;20012;-95
2023/11/05 11:09:38;;;;;;;;;;;;;;;;;;;;;
2023/11/05 11:12:29;;;;;;;3.47;0.63;;;;;;;17.65;43.99;97896.97;6077957;23;20082;-94
2023/11/05 11:15:00;;;;;;;1.55;0.70;;;;;;;17.66;43.17;97876.78;6075325;23;20006;-95
2023/11/05 11:17:33;;;;;;;4.45;0.60;;;;;;;17.75;43.65;97880.91;6135239;23;20079;-96
2023/11/05 11:20:31;;;;;;;5.20;1.08;;;;;;;17.87;43.47;97877.31;6194181;23;20016;-95
2023/11/05 12:55:11;;;;;;;2.58;1.50;;;;;;;18.73;40.64;97870.97;6250132;22;20020;-94
2023/11/05 13:03:13;;;;;;;7.57;1.13;;;;;;;18.80;40.34;97862.22;6259534;22;20340;-95
2023/11/05 13:08:41;;;;;;;1.23;0.77;;;;;;;18.96;40.58;97865.59;6180385;23;20019;-96
2023/11/05 13:37:59;;;;;;;5.05;2.70;;;;;;;19.20;36.50;97858.25;6265858;22;20448;-95
2023/11/05 14:06:46;;;;;;;2.42;1.10;;;;;;;19.10;37.29;97854.19;6237543;22;20025;-95
2023/11/05 14:26:00;;;;;;;7.45;1.27;;;;;;;18.54;38.11;97838.28;6202673;22;20111;-95
2023/11/05 14:37:07;;;;;;;1.83;1.00;;;;;;;18.54;38.06;97855.41;6231899;22;20093;-95
2023/11/05 14:39:32;;;;;;;4.45;1.20;;;;;;;18.50;37.59;97853.78;6182395;23;20450;-94
2023/11/05 15:17:12;;;;;;;3.53;1.35;;;;;;;17.26;41.61;97845.09;6242790;22;20221;-96
2023/11/05 15:20:09;;;;;;;;;;;;;;;17.25;42.30;97860.63;6209134;23;20087;-95
2023/11/05 15:22:51;;;;;;;7.68;1.55;;;;;;;17.12;42.52;97856.38;6235927;23;19911;-94
2023/11/05 15:25:35;;;;;;;5.30;1.52;;;;;;;16.85;43.00;97817.22;6222577;22;20027;-96
2023/11/05 15:28:03;;;;;;;7.03;2.30;;;;;;;16.80;43.86;97801.94;6207418;23;20004;-96
2023/11/05 15:30:30;;;;;;;6.28;1.40;;;;;;;16.84;43.02;97815.66;6228654;23;20008;-95
2023/11/05 15:35:46;;;;;;;5.25;1.25;;;;;;;16.60;42.73;97783.91;6154235;23;20074;-95
2023/11/05 15:38:52;;;;;;;5.57;1.27;;;;;;;16.62;43.22;97801.47;6118541;23;20491;-96
2023/11/05 15:41:25;;;;;;;1.75;1.00;;;;;;;16.59;43.43;97813.03;6170614;22;20035;-96
2023/11/05 16:03:42;;;;;;;5.68;1.30;;;;;;;16.27;44.25;97840.09;6237034;22;20028;-95
2023/11/05 16:06:40;;;;;;;4.10;1.17;;;;;;;16.32;44.14;97845.25;6128081;23;20018;-95
2023/11/05 17:11:28;;;;;;;1.67;0.77;;;;;;;15.99;46.21;97875.31;6236673;22;20054;-94
2023/11/05 17:14:11;;;;;;;3.47;0.80;;;;;;;15.76;45.91;97859.50;6231024;22;20011;-94
2023/11/05 17:19:48;;;;;;;4.43;1.27;;;;;;;15.92;45.90;97853.38;6226118;22;20000;-94
2023/11/05 17:57:17;;;;;;;1.25;0.80;;;;;;;15.93;46.65;97948.03;6256767;22;20854;-94
2023/11/05 18:15:02;;;;;;;;;;;;;;;;;;;;;
2023/11/05 18:26:27;;;;;;;;;;;;;;;;;;;;;
2023/11/05 18:29:19;;;;;;;2.50;1.20;;;;;;;15.52;48.96;97947.06;6176635;23;20403;-96
2023/11/05 18:31:57;;;;;;;;;;;;;;;;;;;;;
2023/11/05 18:34:33;;;;;;;;;;;;;;;;;;;;;
2023/11/05 18:37:14;;;;;;;1.73;1.00;;;;;;;15.52;49.21;97951.69;6173894;23;20019;-96
2023/11/05 18:39:42;;;;;;;3.15;1.17;;;;;;;15.59;49.40;97970.16;6171101;23;20435;-96
2023/11/05 18:42:12;;;;;;;3.85;1.20;;;;;;;15.57;49.52;97963.13;6144988;23;20301;-95
2023/11/05 18:44:40;;;;;;;8.02;2.72;;;;;;;15.61;49.17;97974.09;6144622;23;20040;-94